Airfield :
LOGIN :

Register | Disclaimer

   EN    FR    IT 

 










Legend :    VFR   Marginal VFR   IFR   Intensive IFR   Very Intensive IFR
Visi :
Ceiling :
>= 8 km
>= 3000ft
5 to 8 km
1000 to 3000 ft
1500m to 5 km
500 to 1000 ft
800 to 1500m
200 to 500 ft
< 800m
< 200 ft
Symbols :   Thunderstorms  Fog  Heavy snow  Heavy precipitations  Wind > 20 kt
SIGMETs :     Misc.  Thunderstorms  Icing  Turbulence  Mountain Waves  Volcanic Ashes







- Airport Elevation : 2265 ft
- IATA code : CZL


DABC - Mohamed Boudiaf Int. Constantine

CURRENT METAR :
  • 151530Z 25018KT 9999 FEW033 SCT200 14/03 Q1010

EXPIRED METARs :
  • 151500Z 25018KT 9999 FEW033 SCT100 16/03 Q1010
  • 151430Z 25020KT 9999 FEW033 SCT100 16/03 Q1010
  • 151400Z 26021KT 9999 FEW033 SCT100 16/04 Q1010
  • 151330Z 25018KT 9999 FEW033 SCT100 16/03 Q1011
  • 151300Z 24017KT 9999 FEW033 SCT100 16/04 Q1011

TAF AMD TAF DABC
Valid from the 15 at 12:00 until the 16 at 12:00 UTC


151312Z 1512/1612 26012KT 9999 FEW030
PROB30
TEMPO 1512/1518 27015G25KT
BECMG 1519/1521 26008KT 8000 -RA FEW026 BKN040
TEMPO 1603/1612 30014G24KT 3000 TSRA FEW030CB
No reported NOTAMs for that airfield.
1 SIGMET reported for the Alger FIR (DAAA) :
 
Embedded thunderstorms
DAAA SIGMET 4 VALID 151500/151800 DAMM
DAAA ALGIERS FIR EMBD TS FCST WI N3202 E00902 - N2843 E00953 - N2900 W00018 - N3224 E00007 - N3242 E00349 - N3202 E00902 TOP FL280 MOV NE 25KT NC=



MET'MAP, your aeronautical weather chart ! - Copyright ORBIFLY December 2007 - Disclaimer

ORBIFLY MET'MAP TEAM :

Programming & Development : Alexandra Zaïnal
Concept & Development : Baudouin d'Aumeries
Co-Development & Prog : Marc-Olivier Méhu
Technical & hardware support : Manuel Goepfert

Contact : metmap@orbifly.com




SOURCES & CREDITS :

   NOAA